ROA206 SCEL-SCDA
Flight info
| Callsign | ROA206 |
|---|---|
| Flight time | 2h 8m |
| Altitude | 34000 |
| Route | DONTI5B DONTI UQ802 GAXIR GAXIR4D |
| Aircraft | A321/M-SDE3FGHIRWY/LB1 |
Departure
| Time | 2026-04-21 21:23 |
|---|---|
| Airport | Comodoro Arturo Merino Benítez International Airport (SCEL) |
Arrival
| Time | 2026-04-21 23:31 |
|---|---|
| Airport | Diego Aracena International Airport (SCDA) |
| Time | Latitude | Longitude | Altitude | Speed | Heading |
|---|---|---|---|---|---|
| 2026-04-21 21:21 | -33.37214 | -70.80373 | 1573 ft | 0 kts | 178° |
| 2026-04-21 21:22 | -33.37291 | -70.80369 | 1573 ft | 40 kts | 177° |
| 2026-04-21 21:22 | -33.37798 | -70.80340 | 1572 ft | 103 kts | 177° |
| 2026-04-21 21:22 | -33.38691 | -70.80293 | 1575 ft | 151 kts | 177° |
| 2026-04-21 21:22 | -33.39866 | -70.80233 | 1632 ft | 182 kts | 177° |
| 2026-04-21 21:23 | -33.41104 | -70.80162 | 2193 ft | 181 kts | 176° |
| 2026-04-21 21:23 | -33.42414 | -70.80081 | 2393 ft | 198 kts | 177° |
| 2026-04-21 21:23 | -33.43862 | -70.79993 | 2528 ft | 218 kts | 177° |
| 2026-04-21 21:23 | -33.45464 | -70.79897 | 2667 ft | 244 kts | 178° |
| 2026-04-21 21:24 | -33.47209 | -70.79795 | 3179 ft | 256 kts | 178° |
| 2026-04-21 21:24 | -33.49010 | -70.79691 | 3893 ft | 262 kts | 178° |
| 2026-04-21 21:24 | -33.50836 | -70.79869 | 4579 ft | 268 kts | 197° |
| 2026-04-21 21:24 | -33.52473 | -70.80946 | 5230 ft | 274 kts | 223° |
| 2026-04-21 21:25 | -33.53593 | -70.82787 | 5899 ft | 276 kts | 250° |
| 2026-04-21 21:25 | -33.53959 | -70.85023 | 6588 ft | 274 kts | 275° |
| 2026-04-21 21:25 | -33.53519 | -70.87212 | 7270 ft | 271 kts | 299° |
| 2026-04-21 21:25 | -33.52520 | -70.89112 | 8030 ft | 270 kts | 306° |
| 2026-04-21 21:26 | -33.51476 | -70.90975 | 8784 ft | 270 kts | 306° |
| 2026-04-21 21:26 | -33.50430 | -70.92851 | 9484 ft | 272 kts | 306° |
| 2026-04-21 21:26 | -33.49378 | -70.94742 | 10205 ft | 275 kts | 306° |
| 2026-04-21 21:26 | -33.48189 | -70.96637 | 10395 ft | 295 kts | 314° |
| 2026-04-21 21:27 | -33.46602 | -70.98307 | 10531 ft | 314 kts | 325° |
| 2026-04-21 21:27 | -33.44652 | -70.99570 | 10980 ft | 323 kts | 338° |
| 2026-04-21 21:27 | -33.42512 | -71.00440 | 11560 ft | 327 kts | 341° |
| 2026-04-21 21:27 | -33.40343 | -71.01291 | 12197 ft | 329 kts | 340° |
| 2026-04-21 21:28 | -33.38188 | -71.02142 | 12773 ft | 332 kts | 340° |
| 2026-04-21 21:28 | -33.35986 | -71.03011 | 13437 ft | 334 kts | 340° |
| 2026-04-21 21:28 | -33.31541 | -71.04761 | 14646 ft | 340 kts | 340° |
| 2026-04-21 21:29 | -33.29282 | -71.05646 | 15198 ft | 343 kts | 339° |
| 2026-04-21 21:29 | -33.26996 | -71.06537 | 15746 ft | 347 kts | 339° |
| 2026-04-21 21:29 | -33.24691 | -71.07435 | 16285 ft | 350 kts | 339° |
| 2026-04-21 21:29 | -33.22360 | -71.08340 | 16786 ft | 354 kts | 339° |
| 2026-04-21 21:30 | -33.20810 | -71.08944 | 17136 ft | 356 kts | 338° |
| 2026-04-21 21:30 | -33.17631 | -71.10187 | 17828 ft | 361 kts | 338° |
| 2026-04-21 21:30 | -33.16047 | -71.10805 | 18163 ft | 363 kts | 338° |
| 2026-04-21 21:30 | -33.13633 | -71.11746 | 18567 ft | 366 kts | 338° |
| 2026-04-21 21:31 | -33.11207 | -71.12693 | 18947 ft | 369 kts | 338° |
| 2026-04-21 21:31 | -33.07966 | -71.13958 | 19580 ft | 371 kts | 337° |
| 2026-04-21 21:31 | -33.06309 | -71.14605 | 19894 ft | 372 kts | 337° |
| 2026-04-21 21:31 | -33.03036 | -71.15876 | 20495 ft | 375 kts | 337° |
| 2026-04-21 21:32 | -33.01357 | -71.16526 | 20785 ft | 376 kts | 337° |
| 2026-04-21 21:32 | -32.98857 | -71.17494 | 21215 ft | 379 kts | 336° |
| 2026-04-21 21:32 | -32.96337 | -71.18447 | 21658 ft | 382 kts | 339° |
| 2026-04-21 21:32 | -32.93690 | -71.18993 | 22086 ft | 392 kts | 349° |
| 2026-04-21 21:33 | -32.90971 | -71.19077 | 22516 ft | 397 kts | 353° |
| 2026-04-21 21:33 | -32.88200 | -71.19130 | 22953 ft | 400 kts | 352° |
| 2026-04-21 21:33 | -32.85415 | -71.19185 | 23370 ft | 402 kts | 352° |
| 2026-04-21 21:33 | -32.82605 | -71.19244 | 23770 ft | 404 kts | 352° |
| 2026-04-21 21:34 | -32.79783 | -71.19303 | 24092 ft | 407 kts | 352° |
| 2026-04-21 21:34 | -32.76951 | -71.19359 | 24460 ft | 408 kts | 352° |
| 2026-04-21 21:34 | -32.74103 | -71.19411 | 24813 ft | 409 kts | 352° |
| 2026-04-21 21:34 | -32.71257 | -71.19459 | 25174 ft | 410 kts | 352° |
| 2026-04-21 21:35 | -32.68392 | -71.19508 | 25542 ft | 412 kts | 352° |
| 2026-04-21 21:35 | -32.65523 | -71.19557 | 25897 ft | 413 kts | 352° |
| 2026-04-21 21:35 | -32.62647 | -71.19606 | 26220 ft | 415 kts | 352° |
| 2026-04-21 21:35 | -32.59757 | -71.19660 | 26530 ft | 416 kts | 351° |
| 2026-04-21 21:36 | -32.56896 | -71.19716 | 26873 ft | 417 kts | 351° |
| 2026-04-21 21:36 | -32.53991 | -71.19771 | 27220 ft | 418 kts | 351° |
| 2026-04-21 21:36 | -32.51076 | -71.19825 | 27556 ft | 420 kts | 351° |
| 2026-04-21 21:36 | -32.48152 | -71.19877 | 27882 ft | 421 kts | 351° |
| 2026-04-21 21:37 | -32.45215 | -71.19931 | 28123 ft | 422 kts | 351° |
| 2026-04-21 21:37 | -32.42269 | -71.19986 | 28432 ft | 424 kts | 351° |
| 2026-04-21 21:37 | -32.39313 | -71.20041 | 28761 ft | 425 kts | 351° |
| 2026-04-21 21:37 | -32.36351 | -71.20095 | 29044 ft | 426 kts | 351° |
| 2026-04-21 21:38 | -32.33384 | -71.20148 | 29318 ft | 427 kts | 351° |
| 2026-04-21 21:38 | -32.30409 | -71.20202 | 29607 ft | 429 kts | 351° |
| 2026-04-21 21:38 | -32.27418 | -71.20256 | 29883 ft | 430 kts | 351° |
| 2026-04-21 21:38 | -32.24460 | -71.20308 | 30162 ft | 431 kts | 351° |
| 2026-04-21 21:39 | -32.21427 | -71.20361 | 30467 ft | 430 kts | 351° |
| 2026-04-21 21:39 | -32.18475 | -71.20412 | 30795 ft | 430 kts | 350° |
| 2026-04-21 21:39 | -32.15490 | -71.20461 | 31166 ft | 428 kts | 350° |
| 2026-04-21 21:39 | -32.12523 | -71.20511 | 31538 ft | 426 kts | 349° |
| 2026-04-21 21:40 | -32.09565 | -71.20565 | 31906 ft | 424 kts | 349° |
| 2026-04-21 21:40 | -32.06616 | -71.20617 | 32255 ft | 423 kts | 349° |
| 2026-04-21 21:40 | -32.03676 | -71.20669 | 32614 ft | 422 kts | 349° |
| 2026-04-21 21:40 | -32.00750 | -71.20722 | 32958 ft | 420 kts | 348° |
| 2026-04-21 21:41 | -31.97831 | -71.20777 | 33266 ft | 419 kts | 348° |
| 2026-04-21 21:41 | -31.94924 | -71.20831 | 33595 ft | 417 kts | 348° |
| 2026-04-21 21:41 | -31.92029 | -71.20883 | 33914 ft | 416 kts | 348° |
| 2026-04-21 21:41 | -31.89132 | -71.20935 | 34119 ft | 415 kts | 347° |
| 2026-04-21 21:42 | -31.86270 | -71.20980 | 34151 ft | 410 kts | 347° |
| 2026-04-21 21:42 | -31.80597 | -71.21076 | 34149 ft | 406 kts | 347° |
| 2026-04-21 21:43 | -31.74929 | -71.21077 | 34152 ft | 410 kts | 350° |
| 2026-04-21 21:43 | -31.69250 | -71.20719 | 34148 ft | 412 kts | 351° |
| 2026-04-21 21:44 | -31.63531 | -71.20275 | 34143 ft | 411 kts | 351° |
| 2026-04-21 21:44 | -31.57821 | -71.19883 | 34138 ft | 410 kts | 351° |
| 2026-04-21 21:45 | -31.52124 | -71.19548 | 34146 ft | 410 kts | 350° |
| 2026-04-21 21:45 | -31.46417 | -71.19221 | 34104 ft | 410 kts | 350° |
| 2026-04-21 21:46 | -31.40709 | -71.18877 | 34119 ft | 411 kts | 351° |
| 2026-04-21 21:46 | -31.35004 | -71.18527 | 34123 ft | 410 kts | 351° |
| 2026-04-21 21:47 | -31.29297 | -71.18178 | 34122 ft | 410 kts | 351° |
| 2026-04-21 21:47 | -31.23633 | -71.17832 | 34128 ft | 410 kts | 350° |
| 2026-04-21 21:48 | -31.17933 | -71.17494 | 34099 ft | 410 kts | 350° |
| 2026-04-21 21:48 | -31.12236 | -71.17155 | 34111 ft | 410 kts | 350° |
| 2026-04-21 21:49 | -31.06524 | -71.16814 | 34110 ft | 410 kts | 350° |
| 2026-04-21 21:49 | -31.00831 | -71.16474 | 34119 ft | 410 kts | 350° |
| 2026-04-21 21:50 | -30.95129 | -71.16131 | 34127 ft | 410 kts | 350° |
| 2026-04-21 21:50 | -30.89432 | -71.15780 | 34101 ft | 410 kts | 350° |
| 2026-04-21 21:51 | -30.83779 | -71.15442 | 34108 ft | 410 kts | 350° |
| 2026-04-21 21:51 | -30.78086 | -71.15096 | 34115 ft | 410 kts | 350° |
| 2026-04-21 21:52 | -30.72394 | -71.14753 | 34123 ft | 409 kts | 350° |
| 2026-04-21 21:52 | -30.66707 | -71.14416 | 34078 ft | 409 kts | 350° |
| 2026-04-21 21:53 | -30.61025 | -71.14079 | 34090 ft | 409 kts | 350° |
| 2026-04-21 21:53 | -30.55334 | -71.13744 | 34105 ft | 410 kts | 350° |
| 2026-04-21 21:54 | -30.49643 | -71.13406 | 34106 ft | 410 kts | 350° |
| 2026-04-21 21:54 | -30.43947 | -71.13068 | 34118 ft | 410 kts | 350° |
| 2026-04-21 21:55 | -30.38253 | -71.12730 | 34096 ft | 409 kts | 350° |
| 2026-04-21 21:55 | -30.32568 | -71.12392 | 34111 ft | 409 kts | 350° |
| 2026-04-21 21:56 | -30.26916 | -71.12067 | 34120 ft | 409 kts | 350° |
| 2026-04-21 21:56 | -30.21216 | -71.11677 | 34120 ft | 412 kts | 352° |
| 2026-04-21 21:57 | -30.15489 | -71.11040 | 34122 ft | 415 kts | 353° |
| 2026-04-21 21:57 | -30.09748 | -71.10353 | 34097 ft | 413 kts | 353° |
| 2026-04-21 21:58 | -30.04033 | -71.09711 | 34114 ft | 412 kts | 352° |
| 2026-04-21 21:58 | -29.98318 | -71.09108 | 34122 ft | 412 kts | 352° |
| 2026-04-21 21:59 | -29.92610 | -71.08504 | 34123 ft | 412 kts | 352° |
| 2026-04-21 21:59 | -29.86906 | -71.07892 | 34122 ft | 412 kts | 352° |
| 2026-04-21 22:00 | -29.81239 | -71.07278 | 34123 ft | 412 kts | 352° |
| 2026-04-21 22:00 | -29.75534 | -71.06663 | 34126 ft | 411 kts | 352° |
| 2026-04-21 22:01 | -29.69833 | -71.06057 | 34134 ft | 411 kts | 352° |
| 2026-04-21 22:01 | -29.64134 | -71.05452 | 34131 ft | 411 kts | 352° |
| 2026-04-21 22:02 | -29.58438 | -71.04849 | 34128 ft | 410 kts | 352° |
| 2026-04-21 22:02 | -29.52753 | -71.04246 | 34116 ft | 410 kts | 352° |
| 2026-04-21 22:03 | -29.47073 | -71.03636 | 34128 ft | 409 kts | 352° |
| 2026-04-21 22:03 | -29.41430 | -71.02944 | 34143 ft | 413 kts | 354° |
| 2026-04-21 22:04 | -29.35728 | -71.02030 | 34138 ft | 414 kts | 355° |
| 2026-04-21 22:04 | -29.30034 | -71.01088 | 34128 ft | 413 kts | 355° |
| 2026-04-21 22:05 | -29.24343 | -71.00235 | 34116 ft | 410 kts | 353° |
| 2026-04-21 22:05 | -29.18693 | -70.99698 | 34108 ft | 406 kts | 351° |
| 2026-04-21 22:06 | -29.13056 | -70.99258 | 34114 ft | 406 kts | 351° |
| 2026-04-21 22:06 | -29.07424 | -70.98773 | 34113 ft | 406 kts | 352° |
| 2026-04-21 22:07 | -29.01823 | -70.98244 | 34109 ft | 407 kts | 352° |
| 2026-04-21 22:07 | -28.96185 | -70.97697 | 34080 ft | 406 kts | 352° |
| 2026-04-21 22:08 | -28.90549 | -70.97165 | 34088 ft | 406 kts | 352° |
| 2026-04-21 22:08 | -28.84910 | -70.96640 | 34085 ft | 406 kts | 352° |
| 2026-04-21 22:09 | -28.79274 | -70.96111 | 34089 ft | 406 kts | 352° |
| 2026-04-21 22:09 | -28.73638 | -70.95587 | 34076 ft | 406 kts | 352° |
| 2026-04-21 22:10 | -28.68006 | -70.95061 | 34056 ft | 406 kts | 352° |
| 2026-04-21 22:10 | -28.62374 | -70.94536 | 34072 ft | 407 kts | 352° |
| 2026-04-21 22:11 | -28.56760 | -70.94019 | 34083 ft | 407 kts | 352° |
| 2026-04-21 22:11 | -28.51128 | -70.93497 | 34087 ft | 406 kts | 352° |
| 2026-04-21 22:12 | -28.45494 | -70.92949 | 34090 ft | 407 kts | 353° |
| 2026-04-21 22:12 | -28.39854 | -70.92356 | 34072 ft | 407 kts | 353° |
| 2026-04-21 22:13 | -28.34218 | -70.91755 | 34080 ft | 407 kts | 353° |
| 2026-04-21 22:13 | -28.28580 | -70.91161 | 34085 ft | 406 kts | 353° |
| 2026-04-21 22:14 | -28.22946 | -70.90572 | 34090 ft | 407 kts | 353° |
| 2026-04-21 22:14 | -28.17350 | -70.89977 | 34095 ft | 407 kts | 353° |
| 2026-04-21 22:15 | -28.11716 | -70.89374 | 34067 ft | 407 kts | 353° |
| 2026-04-21 22:15 | -28.06086 | -70.88774 | 34076 ft | 407 kts | 353° |
| 2026-04-21 22:16 | -28.00447 | -70.88181 | 34081 ft | 406 kts | 353° |
| 2026-04-21 22:16 | -27.94818 | -70.87589 | 34078 ft | 406 kts | 353° |
| 2026-04-21 22:17 | -27.89184 | -70.86985 | 34085 ft | 407 kts | 353° |
| 2026-04-21 22:17 | -27.83544 | -70.86381 | 34066 ft | 407 kts | 353° |
| 2026-04-21 22:18 | -27.77911 | -70.85786 | 34081 ft | 407 kts | 353° |
| 2026-04-21 22:18 | -27.72284 | -70.85190 | 34088 ft | 406 kts | 353° |
| 2026-04-21 22:19 | -27.66688 | -70.84599 | 34096 ft | 406 kts | 353° |
| 2026-04-21 22:19 | -27.61065 | -70.84005 | 34100 ft | 406 kts | 353° |
| 2026-04-21 22:20 | -27.55436 | -70.83414 | 34073 ft | 406 kts | 353° |
| 2026-04-21 22:20 | -27.49804 | -70.82816 | 34089 ft | 406 kts | 353° |
| 2026-04-21 22:21 | -27.44180 | -70.82227 | 34090 ft | 406 kts | 353° |
| 2026-04-21 22:21 | -27.38545 | -70.81640 | 34084 ft | 406 kts | 353° |
| 2026-04-21 22:22 | -27.32915 | -70.81051 | 34084 ft | 407 kts | 353° |
| 2026-04-21 22:22 | -27.27282 | -70.80456 | 34066 ft | 406 kts | 353° |
| 2026-04-21 22:23 | -27.21687 | -70.79868 | 34078 ft | 406 kts | 353° |
| 2026-04-21 22:23 | -27.16061 | -70.79276 | 34091 ft | 406 kts | 353° |
| 2026-04-21 22:24 | -27.10429 | -70.78687 | 34099 ft | 406 kts | 353° |
| 2026-04-21 22:24 | -27.04792 | -70.78104 | 34105 ft | 406 kts | 353° |
| 2026-04-21 22:25 | -26.99163 | -70.77516 | 34111 ft | 406 kts | 353° |
| 2026-04-21 22:25 | -26.93535 | -70.76925 | 34116 ft | 406 kts | 353° |
| 2026-04-21 22:26 | -26.87906 | -70.76343 | 34119 ft | 406 kts | 353° |
| 2026-04-21 22:26 | -26.82277 | -70.75757 | 34118 ft | 406 kts | 353° |
| 2026-04-21 22:27 | -26.76650 | -70.75172 | 34119 ft | 406 kts | 353° |
| 2026-04-21 22:27 | -26.71021 | -70.74593 | 34088 ft | 406 kts | 354° |
| 2026-04-21 22:28 | -26.65393 | -70.73977 | 34104 ft | 408 kts | 355° |
| 2026-04-21 22:28 | -26.59781 | -70.73067 | 34113 ft | 412 kts | 358° |
| 2026-04-21 22:29 | -26.54131 | -70.72009 | 34115 ft | 412 kts | 358° |
| 2026-04-21 22:29 | -26.48477 | -70.71001 | 34117 ft | 411 kts | 357° |
| 2026-04-21 22:30 | -26.42830 | -70.70093 | 34096 ft | 407 kts | 355° |
| 2026-04-21 22:30 | -26.37224 | -70.69567 | 34105 ft | 403 kts | 353° |
| 2026-04-21 22:31 | -26.32571 | -70.69247 | 34113 ft | 403 kts | 353° |
| 2026-04-21 22:31 | -26.26970 | -70.68815 | 34117 ft | 404 kts | 353° |
| 2026-04-21 22:32 | -26.20453 | -70.68242 | 34119 ft | 404 kts | 353° |
| 2026-04-21 22:32 | -26.15757 | -70.67821 | 34119 ft | 404 kts | 353° |
| 2026-04-21 22:33 | -26.10151 | -70.67324 | 34087 ft | 404 kts | 354° |
| 2026-04-21 22:33 | -26.04585 | -70.66838 | 34098 ft | 404 kts | 354° |
| 2026-04-21 22:34 | -25.98985 | -70.66353 | 34105 ft | 404 kts | 354° |
| 2026-04-21 22:34 | -25.93379 | -70.65861 | 34109 ft | 404 kts | 354° |
| 2026-04-21 22:35 | -25.87775 | -70.65364 | 34109 ft | 404 kts | 354° |
| 2026-04-21 22:35 | -25.82175 | -70.64876 | 34091 ft | 403 kts | 354° |
| 2026-04-21 22:36 | -25.73773 | -70.64144 | 34101 ft | 403 kts | 354° |
| 2026-04-21 22:36 | -25.68184 | -70.63654 | 34104 ft | 403 kts | 354° |
| 2026-04-21 22:37 | -25.62589 | -70.63168 | 34102 ft | 403 kts | 354° |
| 2026-04-21 22:37 | -25.57032 | -70.62680 | 34099 ft | 403 kts | 354° |
| 2026-04-21 22:38 | -25.51440 | -70.62194 | 34073 ft | 403 kts | 354° |
| 2026-04-21 22:38 | -25.45843 | -70.61712 | 34074 ft | 403 kts | 354° |
| 2026-04-21 22:39 | -25.40246 | -70.61228 | 34083 ft | 404 kts | 354° |
| 2026-04-21 22:39 | -25.34651 | -70.60748 | 34082 ft | 404 kts | 354° |
| 2026-04-21 22:40 | -25.29048 | -70.60266 | 34083 ft | 404 kts | 355° |
| 2026-04-21 22:40 | -25.23445 | -70.59782 | 34061 ft | 404 kts | 355° |
| 2026-04-21 22:41 | -25.17843 | -70.59295 | 34065 ft | 404 kts | 355° |
| 2026-04-21 22:41 | -25.12231 | -70.58805 | 34071 ft | 404 kts | 355° |
| 2026-04-21 22:42 | -25.06621 | -70.58317 | 34081 ft | 405 kts | 355° |
| 2026-04-21 22:42 | -25.01038 | -70.57840 | 34092 ft | 405 kts | 355° |
| 2026-04-21 22:43 | -24.95424 | -70.57367 | 34088 ft | 405 kts | 355° |
| 2026-04-21 22:43 | -24.89800 | -70.56893 | 34061 ft | 405 kts | 355° |
| 2026-04-21 22:44 | -24.84178 | -70.56414 | 34073 ft | 406 kts | 355° |
| 2026-04-21 22:44 | -24.78541 | -70.55974 | 34071 ft | 404 kts | 353° |
| 2026-04-21 22:45 | -24.72950 | -70.55942 | 34072 ft | 400 kts | 351° |
| 2026-04-21 22:45 | -24.67382 | -70.56086 | 34080 ft | 401 kts | 350° |
| 2026-04-21 22:46 | -24.61794 | -70.56181 | 34048 ft | 402 kts | 351° |
| 2026-04-21 22:46 | -24.56233 | -70.56216 | 34054 ft | 403 kts | 352° |
| 2026-04-21 22:47 | -24.50625 | -70.56242 | 34064 ft | 403 kts | 352° |
| 2026-04-21 22:47 | -24.45012 | -70.56278 | 34062 ft | 403 kts | 352° |
| 2026-04-21 22:48 | -24.39397 | -70.56310 | 34070 ft | 404 kts | 352° |
| 2026-04-21 22:48 | -24.33781 | -70.56340 | 34055 ft | 404 kts | 352° |
| 2026-04-21 22:49 | -24.28157 | -70.56374 | 34063 ft | 404 kts | 352° |
| 2026-04-21 22:49 | -24.22536 | -70.56408 | 34070 ft | 404 kts | 352° |
| 2026-04-21 22:50 | -24.16916 | -70.56447 | 34072 ft | 404 kts | 352° |
| 2026-04-21 22:50 | -24.11330 | -70.56482 | 34075 ft | 404 kts | 352° |
| 2026-04-21 22:51 | -24.05710 | -70.56514 | 34085 ft | 404 kts | 352° |
| 2026-04-21 22:51 | -24.00098 | -70.56553 | 34079 ft | 403 kts | 352° |
| 2026-04-21 22:52 | -23.94485 | -70.56587 | 34082 ft | 403 kts | 352° |
| 2026-04-21 22:52 | -23.88875 | -70.56611 | 34074 ft | 403 kts | 352° |
| 2026-04-21 22:53 | -23.83267 | -70.56643 | 34077 ft | 403 kts | 352° |
| 2026-04-21 22:53 | -23.77661 | -70.56680 | 34075 ft | 403 kts | 352° |
| 2026-04-21 22:54 | -23.72052 | -70.56665 | 34047 ft | 404 kts | 353° |
| 2026-04-21 22:54 | -23.66467 | -70.56623 | 34048 ft | 404 kts | 353° |
| 2026-04-21 22:55 | -23.60845 | -70.56587 | 34045 ft | 404 kts | 353° |
| 2026-04-21 22:55 | -23.55219 | -70.56561 | 34045 ft | 404 kts | 353° |
| 2026-04-21 22:56 | -23.49604 | -70.56541 | 34056 ft | 403 kts | 353° |
| 2026-04-21 22:56 | -23.43994 | -70.56526 | 34034 ft | 404 kts | 353° |
| 2026-04-21 22:57 | -23.38408 | -70.56507 | 34036 ft | 404 kts | 353° |
| 2026-04-21 22:57 | -23.32786 | -70.56479 | 34040 ft | 404 kts | 353° |
| 2026-04-21 22:58 | -23.27160 | -70.56447 | 34040 ft | 404 kts | 353° |
| 2026-04-21 22:58 | -23.21525 | -70.56423 | 34044 ft | 405 kts | 353° |
| 2026-04-21 22:59 | -23.15888 | -70.56399 | 34050 ft | 405 kts | 353° |
| 2026-04-21 22:59 | -23.10247 | -70.56374 | 34040 ft | 405 kts | 354° |
| 2026-04-21 23:00 | -23.04610 | -70.56353 | 34044 ft | 405 kts | 354° |
| 2026-04-21 23:00 | -22.98973 | -70.56327 | 34046 ft | 405 kts | 354° |
| 2026-04-21 23:01 | -22.93371 | -70.56302 | 34052 ft | 405 kts | 354° |
| 2026-04-21 23:01 | -22.87731 | -70.56280 | 34050 ft | 405 kts | 354° |
| 2026-04-21 23:02 | -22.82092 | -70.56195 | 34032 ft | 406 kts | 355° |
| 2026-04-21 23:02 | -22.76442 | -70.56060 | 34040 ft | 406 kts | 355° |
| 2026-04-21 23:03 | -22.70790 | -70.55933 | 34039 ft | 406 kts | 355° |
| 2026-04-21 23:03 | -22.65134 | -70.55821 | 34046 ft | 406 kts | 355° |
| 2026-04-21 23:04 | -22.59479 | -70.55717 | 34051 ft | 406 kts | 355° |
| 2026-04-21 23:04 | -22.53829 | -70.55616 | 34055 ft | 406 kts | 355° |
| 2026-04-21 23:05 | -22.48203 | -70.55512 | 34041 ft | 406 kts | 355° |
| 2026-04-21 23:05 | -22.42543 | -70.55402 | 34047 ft | 407 kts | 355° |
| 2026-04-21 23:06 | -22.36880 | -70.55291 | 34052 ft | 407 kts | 355° |
| 2026-04-21 23:06 | -22.31214 | -70.55184 | 34057 ft | 407 kts | 355° |
| 2026-04-21 23:07 | -22.25548 | -70.55076 | 34066 ft | 407 kts | 355° |
| 2026-04-21 23:07 | -22.19887 | -70.54967 | 34046 ft | 407 kts | 356° |
| 2026-04-21 23:08 | -22.14218 | -70.54871 | 33889 ft | 408 kts | 356° |
| 2026-04-21 23:08 | -22.11376 | -70.54817 | 33627 ft | 408 kts | 356° |
| 2026-04-21 23:08 | -22.08534 | -70.54760 | 33372 ft | 409 kts | 356° |
| 2026-04-21 23:09 | -22.05700 | -70.54700 | 32930 ft | 405 kts | 356° |
| 2026-04-21 23:09 | -22.02900 | -70.54640 | 32430 ft | 402 kts | 356° |
| 2026-04-21 23:09 | -22.00115 | -70.54581 | 31929 ft | 399 kts | 355° |
| 2026-04-21 23:09 | -21.97350 | -70.54524 | 31434 ft | 396 kts | 355° |
| 2026-04-21 23:10 | -21.94636 | -70.54468 | 30956 ft | 394 kts | 355° |
| 2026-04-21 23:10 | -21.91902 | -70.54417 | 30471 ft | 392 kts | 355° |
| 2026-04-21 23:10 | -21.89181 | -70.54322 | 29913 ft | 393 kts | 0° |
| 2026-04-21 23:10 | -21.86466 | -70.53873 | 29363 ft | 394 kts | 4° |
| 2026-04-21 23:11 | -21.83776 | -70.53371 | 28844 ft | 391 kts | 4° |
| 2026-04-21 23:11 | -21.81098 | -70.52869 | 28327 ft | 389 kts | 5° |
| 2026-04-21 23:11 | -21.78443 | -70.52371 | 27821 ft | 387 kts | 5° |
| 2026-04-21 23:11 | -21.75797 | -70.51875 | 27316 ft | 385 kts | 5° |
| 2026-04-21 23:12 | -21.73170 | -70.51381 | 26843 ft | 382 kts | 5° |
| 2026-04-21 23:12 | -21.70556 | -70.50893 | 26352 ft | 380 kts | 5° |
| 2026-04-21 23:12 | -21.67957 | -70.50410 | 25893 ft | 378 kts | 5° |
| 2026-04-21 23:12 | -21.65369 | -70.49929 | 25420 ft | 376 kts | 5° |
| 2026-04-21 23:13 | -21.62800 | -70.49450 | 24985 ft | 374 kts | 6° |
| 2026-04-21 23:13 | -21.60241 | -70.48976 | 24538 ft | 372 kts | 6° |
| 2026-04-21 23:13 | -21.57692 | -70.48504 | 24087 ft | 371 kts | 6° |
| 2026-04-21 23:13 | -21.55156 | -70.48032 | 23636 ft | 370 kts | 6° |
| 2026-04-21 23:14 | -21.52624 | -70.47560 | 23132 ft | 369 kts | 7° |
| 2026-04-21 23:14 | -21.50106 | -70.47088 | 22680 ft | 366 kts | 7° |
| 2026-04-21 23:14 | -21.47609 | -70.46623 | 22231 ft | 363 kts | 7° |
| 2026-04-21 23:14 | -21.45131 | -70.46163 | 21779 ft | 360 kts | 7° |
| 2026-04-21 23:15 | -21.42665 | -70.45703 | 21330 ft | 358 kts | 7° |
| 2026-04-21 23:15 | -21.40215 | -70.45247 | 20877 ft | 356 kts | 7° |
| 2026-04-21 23:15 | -21.37784 | -70.44795 | 20421 ft | 355 kts | 7° |
| 2026-04-21 23:15 | -21.35356 | -70.44345 | 19975 ft | 353 kts | 7° |
| 2026-04-21 23:16 | -21.32967 | -70.43899 | 19535 ft | 352 kts | 7° |
| 2026-04-21 23:16 | -21.30526 | -70.43446 | 19082 ft | 351 kts | 7° |
| 2026-04-21 23:16 | -21.28155 | -70.43009 | 18646 ft | 350 kts | 7° |
| 2026-04-21 23:16 | -21.25763 | -70.42566 | 18184 ft | 349 kts | 8° |
| 2026-04-21 23:17 | -21.23379 | -70.42123 | 17713 ft | 346 kts | 8° |
| 2026-04-21 23:17 | -21.21010 | -70.41683 | 17289 ft | 343 kts | 8° |
| 2026-04-21 23:17 | -21.18665 | -70.41247 | 16868 ft | 341 kts | 8° |
| 2026-04-21 23:17 | -21.16335 | -70.40815 | 16447 ft | 339 kts | 8° |
| 2026-04-21 23:18 | -21.14020 | -70.40388 | 16032 ft | 337 kts | 8° |
| 2026-04-21 23:18 | -21.11719 | -70.39964 | 15622 ft | 335 kts | 8° |
| 2026-04-21 23:18 | -21.09425 | -70.39539 | 15211 ft | 334 kts | 9° |
| 2026-04-21 23:18 | -21.07144 | -70.39114 | 14800 ft | 332 kts | 8° |
| 2026-04-21 23:19 | -21.04867 | -70.38692 | 14388 ft | 331 kts | 9° |
| 2026-04-21 23:19 | -21.02598 | -70.38273 | 13970 ft | 331 kts | 9° |
| 2026-04-21 23:19 | -21.00327 | -70.37853 | 13530 ft | 330 kts | 9° |
| 2026-04-21 23:19 | -20.98067 | -70.37435 | 13110 ft | 329 kts | 9° |
| 2026-04-21 23:20 | -20.95849 | -70.37025 | 12690 ft | 327 kts | 9° |
| 2026-04-21 23:20 | -20.93613 | -70.36612 | 12285 ft | 325 kts | 9° |
| 2026-04-21 23:20 | -20.91386 | -70.36199 | 11868 ft | 324 kts | 10° |
| 2026-04-21 23:20 | -20.89170 | -70.35789 | 11454 ft | 323 kts | 10° |
| 2026-04-21 23:21 | -20.86950 | -70.35379 | 10927 ft | 326 kts | 10° |
| 2026-04-21 23:21 | -20.84719 | -70.34921 | 10463 ft | 326 kts | 15° |
| 2026-04-21 23:21 | -20.82578 | -70.34146 | 10136 ft | 321 kts | 20° |
| 2026-04-21 23:21 | -20.80506 | -70.33364 | 10016 ft | 310 kts | 20° |
| 2026-04-21 23:22 | -20.78508 | -70.32614 | 9842 ft | 301 kts | 19° |
| 2026-04-21 23:22 | -20.76539 | -70.31877 | 9408 ft | 300 kts | 19° |
| 2026-04-21 23:22 | -20.74583 | -70.31148 | 9083 ft | 296 kts | 19° |
| 2026-04-21 23:22 | -20.72642 | -70.30421 | 8629 ft | 294 kts | 19° |
| 2026-04-21 23:23 | -20.70738 | -70.29707 | 8134 ft | 292 kts | 19° |
| 2026-04-21 23:23 | -20.68827 | -70.28992 | 7582 ft | 290 kts | 18° |
| 2026-04-21 23:23 | -20.66935 | -70.28282 | 6983 ft | 287 kts | 18° |
| 2026-04-21 23:23 | -20.65059 | -70.27576 | 6368 ft | 285 kts | 17° |
| 2026-04-21 23:24 | -20.63203 | -70.26876 | 5779 ft | 280 kts | 18° |
| 2026-04-21 23:24 | -20.61365 | -70.26259 | 5282 ft | 273 kts | 8° |
| 2026-04-21 23:24 | -20.59483 | -70.26100 | 4819 ft | 272 kts | 357° |
| 2026-04-21 23:24 | -20.57606 | -70.26114 | 4508 ft | 268 kts | 359° |
| 2026-04-21 23:25 | -20.55752 | -70.26119 | 4164 ft | 261 kts | 359° |
| 2026-04-21 23:25 | -20.54003 | -70.26119 | 4004 ft | 243 kts | 359° |
| 2026-04-21 23:25 | -20.52369 | -70.26119 | 3904 ft | 226 kts | 358° |
| 2026-04-21 23:25 | -20.50842 | -70.26118 | 3794 ft | 215 kts | 359° |
| 2026-04-21 23:26 | -20.49374 | -70.26118 | 3715 ft | 204 kts | 359° |
| 2026-04-21 23:26 | -20.48031 | -70.26121 | 3618 ft | 187 kts | 359° |
| 2026-04-21 23:26 | -20.46764 | -70.26123 | 3528 ft | 173 kts | 359° |
| 2026-04-21 23:26 | -20.45582 | -70.26056 | 3413 ft | 178 kts | 10° |
| 2026-04-21 23:27 | -20.44409 | -70.25610 | 3171 ft | 181 kts | 29° |
| 2026-04-21 23:27 | -20.43422 | -70.24779 | 2955 ft | 182 kts | 49° |
| 2026-04-21 23:27 | -20.42727 | -70.23651 | 2739 ft | 183 kts | 69° |
| 2026-04-21 23:27 | -20.42410 | -70.22356 | 2525 ft | 180 kts | 88° |
| 2026-04-21 23:28 | -20.42484 | -70.21047 | 2301 ft | 174 kts | 106° |
| 2026-04-21 23:28 | -20.42912 | -70.19872 | 2045 ft | 168 kts | 124° |
| 2026-04-21 23:28 | -20.43617 | -70.18914 | 1813 ft | 161 kts | 142° |
| 2026-04-21 23:28 | -20.44496 | -70.18240 | 1611 ft | 150 kts | 156° |
| 2026-04-21 23:29 | -20.45455 | -70.17856 | 1382 ft | 146 kts | 171° |
| 2026-04-21 23:29 | -20.46456 | -70.17749 | 1175 ft | 145 kts | 183° |
| 2026-04-21 23:29 | -20.47452 | -70.17806 | 977 ft | 145 kts | 184° |
| 2026-04-21 23:29 | -20.48456 | -70.17861 | 776 ft | 144 kts | 184° |
| 2026-04-21 23:30 | -20.49453 | -70.17914 | 575 ft | 143 kts | 184° |
| 2026-04-21 23:30 | -20.50436 | -70.17955 | 429 ft | 141 kts | 184° |
| 2026-04-21 23:30 | -20.51408 | -70.18006 | 319 ft | 140 kts | 185° |
| 2026-04-21 23:30 | -20.52376 | -70.18060 | 203 ft | 138 kts | 185° |
| 2026-04-21 23:31 | -20.53244 | -70.18112 | 174 ft | 104 kts | 183° |
| 2026-04-21 23:31 | -20.53781 | -70.18140 | 173 ft | 52 kts | 183° |
| 2026-04-21 23:31 | -20.54040 | -70.18154 | 175 ft | 33 kts | 182° |
| 2026-04-21 23:31 | -20.54239 | -70.18164 | 175 ft | 20 kts | 182° |
| 2026-04-21 23:32 | -20.54320 | -70.18150 | 176 ft | 17 kts | 166° |
| 2026-04-21 23:32 | -20.54422 | -70.18114 | 176 ft | 14 kts | 154° |
| 2026-04-21 23:32 | -20.54499 | -70.18065 | 175 ft | 12 kts | 148° |
| 2026-04-21 23:32 | -20.54555 | -70.18029 | 175 ft | 8 kts | 149° |
| 2026-04-21 23:33 | -20.54607 | -70.18011 | 174 ft | 8 kts | 174° |
| 2026-04-21 23:33 | -20.54661 | -70.18012 | 174 ft | 7 kts | 182° |
| 2026-04-21 23:33 | -20.54690 | -70.18014 | 175 ft | 2 kts | 183° |
| 2026-04-21 23:33 | -20.54701 | -70.18014 | 175 ft | 2 kts | 183° |
| 2026-04-21 23:34 | -20.54712 | -70.18015 | 175 ft | 2 kts | 183° |
| 2026-04-21 23:34 | -20.54726 | -70.18016 | 175 ft | 2 kts | 183° |
| 2026-04-21 23:34 | -20.54740 | -70.18016 | 175 ft | 3 kts | 183° |
| 2026-04-21 23:34 | -20.54764 | -70.18018 | 175 ft | 4 kts | 184° |
| 2026-04-21 23:35 | -20.54787 | -70.18016 | 175 ft | 2 kts | 157° |
| 2026-04-21 23:35 | -20.54798 | -70.18000 | 175 ft | 3 kts | 114° |
| 2026-04-21 23:35 | -20.54801 | -70.17975 | 174 ft | 3 kts | 97° |
| 2026-04-21 23:35 | -20.54803 | -70.17962 | 174 ft | 1 kts | 96° |
| 2026-04-21 23:36 | -20.54803 | -70.17955 | 174 ft | 1 kts | 96° |
| 2026-04-21 23:36 | -20.54804 | -70.17950 | 174 ft | 0 kts | 96° |
| 2026-04-21 23:36 | -20.54804 | -70.17947 | 174 ft | 0 kts | 96° |
| 2026-04-21 23:36 | -20.54805 | -70.17941 | 174 ft | 1 kts | 96° |
| 2026-04-21 23:37 | -20.54805 | -70.17940 | 174 ft | 0 kts | 96° |